Terminal Aerodrome Forecast
Issued by NWS

Current Version | Previous Version | Text Only | Print | Product List | Glossary Off
Versions: 1 2 3 4 5 6 7 8 9 10 11 12 13 14 15 16 17 18 19 20 21 22 23 24 25 26 27 28 29 30 31 32 33 34 35 36 37 38 39 40 41 42 43 44 45 46 47 48 49 50

030
FTUS41 KRNK 031141
TAFLWB
TAF
KLWB 031141Z 0312/0412 00000KT 5SM -RA BR SCT005 OVC015
     FM031500 28007KT P6SM VCSH OVC018
     FM040000 29005KT P6SM VCSH SCT010 OVC018=

USA.gov is the U.S. government's official web portal to all federal, state and local government web resources and services.